Date,TemperatureHighF,TemperatureAvgF,TemperatureLowF,DewpointHighF,DewpointAvgF,DewpointLowF,HumidityHigh,HumidityAvg,HumidityLow,PressureMaxIn,PressureMinIn,WindSpeedMaxMPH,WindSpeedAvgMPH,GustSpeedMaxMPH,PrecipitationSumIn
2013-1-1,54,43,32,-100,-100,-100,0,0,100,0.00,40.00,0,-999,0,0.00
2013-1-2,48,37,26,-100,-100,-100,0,0,100,0.00,40.00,0,-999,0,0.00
2013-1-3,34,32,30,-100,-100,-100,0,0,100,0.00,40.00,0,-999,0,0.00
2013-1-4,40,32,22,-100,-100,-100,0,0,100,0.00,40.00,0,-999,0,0.00
2013-1-5,51,40,22,-100,-100,-100,0,0,100,0.00,40.00,0,-999,0,0.00
2013-1-6,53,39,29,-100,-100,-100,0,0,100,0.00,40.00,0,-999,0,0.00
2013-1-7,51,39,33,-100,-100,-100,0,0,100,0.00,40.00,0,-999,0,0.00
2013-1-8,47,38,32,-100,-100,-100,0,0,100,0.00,40.00,0,-999,0,0.00
2013-1-9,42,40,36,-100,-100,-100,0,0,100,0.00,40.00,0,-999,0,0.00
2013-1-10,62,50,38,-100,-100,-100,0,0,100,0.00,40.00,0,-999,0,0.00
2013-1-11,72,58,46,-100,-100,-100,0,0,100,0.00,40.00,0,-999,0,0.00
2013-1-12,52,44,34,-100,-100,-100,0,0,100,0.00,40.00,0,-999,0,0.00
2013-1-13,43,35,28,-100,-100,-100,0,0,100,0.00,40.00,0,-999,0,0.00
2013-1-14,32,28,25,-100,-100,-100,0,0,100,0.00,40.00,0,-999,0,0.00
2013-1-15,41,30,21,-100,-100,-100,0,0,100,0.00,40.00,0,-999,0,0.00
2013-1-16,54,39,28,-100,-100,-100,0,0,100,0.00,40.00,0,-999,0,0.00
2013-1-17,61,46,37,-100,-100,-100,0,0,100,0.00,40.00,0,-999,0,0.00
2013-1-18,67,46,32,-100,-100,-100,0,0,100,0.00,40.00,0,-999,0,0.00
2013-1-19,71,54,42,-100,-100,-100,0,0,100,0.00,40.00,0,-999,0,0.00
2013-1-20,73,52,34,-100,-100,-100,0,0,100,0.00,40.00,0,-999,0,0.00
2013-1-21,58,47,38,-100,-100,-100,0,0,100,0.00,40.00,0,-999,0,0.00
2013-1-22,76,55,37,-100,-100,-100,0,0,100,0.00,40.00,0,-999,0,0.00
2013-1-23,79,62,51,-100,-100,-100,0,0,100,0.00,40.00,0,-999,0,0.00
2013-1-24,81,64,51,-100,-100,-100,0,0,100,0.00,40.00,0,-999,0,0.00
2013-1-25,80,68,58,-100,-100,-100,0,0,100,0.00,40.00,0,-999,0,0.00
2013-1-26,72,59,45,-100,-100,-100,0,0,100,0.00,40.00,0,-999,0,0.00
2013-1-27,78,66,58,-100,-100,-100,0,0,100,0.00,40.00,0,-999,0,0.00
2013-1-28,77,64,48,-100,-100,-100,0,0,100,0.00,40.00,0,-999,0,0.00
2013-1-29,63,49,42,-100,-100,-100,0,0,100,0.00,40.00,0,-999,0,0.00
2013-1-30,54,44,29,-100,-100,-100,0,0,100,0.00,40.00,0,-999,0,0.00
2013-1-31,66,55,43,-100,-100,-100,0,0,100,0.00,40.00,0,-999,0,0.00
2013-2-1,73,55,40,-100,-100,-100,0,0,100,0.00,40.00,0,-999,0,0.00
2013-2-2,69,58,44,-100,-100,-100,0,0,100,0.00,40.00,0,-999,0,0.00
2013-2-3,65,53,38,-100,-100,-100,0,0,100,0.00,40.00,0,-999,0,0.00
2013-2-4,73,61,46,-100,-100,-100,0,0,100,0.00,40.00,0,-999,0,0.00
2013-2-5,75,59,45,-100,-100,-100,0,0,100,0.00,40.00,0,-999,0,0.00
2013-2-6,76,62,47,-100,-100,-100,0,0,100,0.00,40.00,0,-999,0,0.00
2013-2-7,69,58,45,-100,-100,-100,0,0,100,0.00,40.00,0,-999,0,0.00
2013-2-8,69,53,38,-100,-100,-100,0,0,100,0.00,40.00,0,-999,0,0.00
2013-2-9,80,58,46,-100,-100,-100,0,0,100,0.00,40.00,0,-999,0,0.00
2013-2-10,64,50,40,-100,-100,-100,0,0,100,0.00,40.00,0,-999,0,0.00
2013-2-11,69,52,34,-100,-100,-100,0,0,100,0.00,40.00,0,-999,0,0.00
2013-2-12,58,48,34,-100,-100,-100,0,0,100,0.00,40.00,0,-999,0,0.00
2013-2-13,63,47,31,-100,-100,-100,0,0,100,0.00,40.00,0,-999,0,0.00
2013-2-14,71,56,47,-100,-100,-100,0,0,100,0.00,40.00,0,-999,0,0.00
2013-2-15,52,43,37,-100,-100,-100,0,0,100,0.00,40.00,0,-999,0,0.00
2013-2-16,69,51,33,-100,-100,-100,0,0,100,0.00,40.00,0,-999,0,0.00
2013-2-17,76,65,52,-100,-100,-100,0,0,100,0.00,40.00,0,-999,0,0.00
2013-2-18,73,62,48,-100,-100,-100,0,0,100,0.00,40.00,0,-999,0,0.00
2013-2-19,51,45,37,-100,-100,-100,0,0,100,0.00,40.00,0,-999,0,0.00
2013-2-20,80,57,37,-100,-100,-100,0,0,100,0.00,40.00,0,-999,0,0.00
2013-2-21,60,49,40,-100,-100,-100,0,0,100,0.00,40.00,0,-999,0,0.00
2013-2-22,65,50,40,-100,-100,-100,0,0,100,0.00,40.00,0,-999,0,0.00
2013-2-23,69,56,42,-100,-100,-100,0,0,100,0.00,40.00,0,-999,0,0.00
2013-2-24,78,61,43,-100,-100,-100,0,0,100,0.00,40.00,0,-999,0,0.00
2013-2-25,59,47,38,-100,-100,-100,0,0,100,0.00,40.00,0,-999,0,0.00
2013-2-26,71,58,41,-100,-100,-100,0,0,100,0.00,40.00,0,-999,0,0.00
2013-2-27,58,45,32,-100,-100,-100,0,0,100,0.00,40.00,0,-999,0,0.00
2013-2-28,62,43,27,-100,-100,-100,0,0,100,0.00,40.00,0,-999,0,0.00
2013-3-1,66,52,38,-100,-100,-100,0,0,100,0.00,40.00,0,-999,0,0.00
2013-3-2,77,52,33,-100,-100,-100,0,0,100,0.00,40.00,0,-999,0,0.00
2013-3-3,86,69,47,-100,-100,-100,0,0,100,0.00,40.00,0,-999,0,0.00
2013-3-4,85,71,58,-100,-100,-100,0,0,100,0.00,40.00,0,-999,0,0.00
2013-3-5,65,52,40,-100,-100,-100,0,0,100,0.00,40.00,0,-999,0,0.00
2013-3-6,74,54,39,-100,-100,-100,0,0,100,0.00,40.00,0,-999,0,0.00
2013-3-7,80,61,44,-100,-100,-100,0,0,100,0.00,40.00,0,-999,0,0.00
2013-3-8,85,71,56,-100,-100,-100,0,0,100,0.00,40.00,0,-999,0,0.00
2013-3-9,71,60,52,-100,-100,-100,0,0,100,0.00,40.00,0,-999,0,0.00
2013-3-10,58,49,36,-100,-100,-100,0,0,100,0.00,40.00,0,-999,0,0.00
2013-3-11,73,55,36,-100,-100,-100,0,0,100,0.00,40.00,0,-999,0,0.00
2013-3-12,70,60,51,-100,-100,-100,0,0,100,0.00,40.00,0,-999,0,0.00
2013-3-13,83,55,35,-100,-100,-100,0,0,100,0.00,40.00,0,-999,0,0.00
2013-3-14,90,66,49,-100,-100,-100,0,0,100,0.00,40.00,0,-999,0,0.00
2013-3-15,91,72,55,-100,-100,-100,0,0,100,0.00,40.00,0,-999,0,0.00
2013-3-16,92,78,66,-100,-100,-100,0,0,100,0.00,40.00,0,-999,0,0.00
2013-3-17,87,70,51,-100,-100,-100,0,0,100,0.00,40.00,0,-999,0,0.00
2013-3-18,82,71,57,-100,-100,-100,0,0,100,0.00,40.00,0,-999,0,0.00
2013-3-19,87,70,55,-100,-100,-100,0,0,100,0.00,40.00,0,-999,0,0.00
2013-3-20,73,57,44,-100,-100,-100,0,0,100,0.00,40.00,0,-999,0,0.00
2013-3-21,88,71,51,-100,-100,-100,0,0,100,0.00,40.00,0,-999,0,0.00
2013-3-22,81,72,64,-100,-100,-100,0,0,100,0.00,40.00,0,-999,0,0.00
2013-3-23,80,68,54,-100,-100,-100,0,0,100,0.00,40.00,0,-999,0,0.00
2013-3-24,62,45,27,-100,-100,-100,0,0,100,0.00,40.00,0,-999,0,0.00
2013-3-25,62,46,31,-100,-100,-100,0,0,100,0.00,40.00,0,-999,0,0.00
2013-3-26,77,49,29,-100,-100,-100,0,0,100,0.00,40.00,0,-999,0,0.00
2013-3-27,86,65,43,-100,-100,-100,0,0,100,0.00,40.00,0,-999,0,0.00
2013-3-28,92,72,52,-100,-100,-100,0,0,100,0.00,40.00,0,-999,0,0.00
2013-3-29,91,75,54,-100,-100,-100,0,0,100,0.00,40.00,0,-999,0,0.00
2013-3-30,90,74,58,-100,-100,-100,0,0,100,0.00,40.00,0,-999,0,0.00
2013-3-31,81,71,61,-100,-100,-100,0,0,100,0.00,40.00,0,-999,0,0.00
2013-4-1,94,72,54,-100,-100,-100,0,0,100,0.00,40.00,0,-999,0,0.00
2013-4-2,70,60,49,-100,-100,-100,0,0,100,0.00,40.00,0,-999,0,0.00
2013-4-3,72,54,44,-100,-100,-100,0,0,100,0.00,40.00,0,-999,0,0.00
2013-4-4,86,58,37,-100,-100,-100,0,0,100,0.00,40.00,0,-999,0,0.00
2013-4-5,92,75,50,-100,-100,-100,0,0,100,0.00,40.00,0,-999,0,0.00
2013-4-6,90,76,63,-100,-100,-100,0,0,100,0.00,40.00,0,-999,0,0.00
2013-4-7,91,74,62,-100,-100,-100,0,0,100,0.00,40.00,0,-999,0,0.00
2013-4-8,93,77,64,-100,-100,-100,0,0,100,0.00,40.00,0,-999,0,0.00
2013-4-9,85,75,62,-100,-100,-100,0,0,100,0.00,40.00,0,-999,0,0.00
2013-4-10,65,52,38,-100,-100,-100,0,0,100,0.00,40.00,0,-999,0,0.00
2013-4-11,76,58,39,-100,-100,-100,0,0,100,0.00,40.00,0,-999,0,0.00
2013-4-12,88,68,51,-100,-100,-100,0,0,100,0.00,40.00,0,-999,0,0.00
2013-4-13,86,68,53,-100,-100,-100,0,0,100,0.00,40.00,0,-999,0,0.00
2013-4-14,89,75,63,-100,-100,-100,0,0,100,0.00,40.00,0,-999,0,0.00
2013-4-15,93,76,58,-100,-100,-100,0,0,100,0.00,40.00,0,-999,0,0.00
2013-4-16,99,76,65,-100,-100,-100,0,0,100,0.00,40.00,0,-999,0,0.00
2013-4-17,95,79,58,-100,-100,-100,0,0,100,0.00,40.00,0,-999,0,0.00
2013-4-18,72,60,46,-100,-100,-100,0,0,100,0.00,40.00,0,-999,0,0.00
2013-4-19,77,56,36,-100,-100,-100,0,0,100,0.00,40.00,0,-999,0,0.00
2013-4-20,90,67,47,-100,-100,-100,0,0,100,0.00,40.00,0,-999,0,0.00
2013-4-21,91,73,58,-100,-100,-100,0,0,100,0.00,40.00,0,-999,0,0.00
2013-4-22,97,75,60,-100,-100,-100,0,0,100,0.00,40.00,0,-999,0,0.00
2013-4-23,68,63,48,-100,-100,-100,0,0,100,0.00,40.00,0,-999,0,0.00
2013-4-24,69,53,36,-100,-100,-100,0,0,100,0.00,40.00,0,-999,0,0.00
2013-4-25,93,63,41,-100,-100,-100,0,0,100,0.00,40.00,0,-999,0,0.00
2013-4-26,91,74,54,-100,-100,-100,0,0,100,0.00,40.00,0,-999,0,0.00
2013-4-27,86,69,56,-100,-100,-100,0,0,100,0.00,40.00,0,-999,0,0.00
2013-4-28,90,76,57,-100,-100,-100,0,0,100,0.00,40.00,0,-999,0,0.00
2013-4-29,96,75,61,-100,-100,-100,0,0,100,0.00,40.00,0,-999,0,0.00
2013-4-30,97,85,69,-100,-100,-100,0,0,100,0.00,40.00,0,-999,0,0.00
2013-5-1,99,84,68,-100,-100,-100,0,0,100,0.00,40.00,0,-999,0,0.00
2013-5-2,76,55,45,-100,-100,-100,0,0,100,0.00,40.00,0,-999,0,0.00
2013-5-3,73,54,34,-100,-100,-100,0,0,100,0.00,40.00,0,-999,0,0.00
2013-5-4,83,62,43,-100,-100,-100,0,0,100,0.00,40.00,0,-999,0,0.00
2013-5-5,85,65,47,-100,-100,-100,0,0,100,0.00,40.00,0,-999,0,0.00
2013-5-6,88,73,60,-100,-100,-100,0,0,100,0.00,40.00,0,-999,0,0.00
2013-5-7,90,73,59,-100,-100,-100,0,0,100,0.00,40.00,0,-999,0,0.00
2013-5-8,91,80,67,-100,-100,-100,0,0,100,0.00,40.00,0,-999,0,0.00
2013-5-9,91,79,69,-100,-100,-100,0,0,100,0.00,40.00,0,-999,0,0.00
2013-5-10,75,66,56,-100,-100,-100,0,0,100,0.00,40.00,0,-999,0,0.00
2013-5-11,79,64,52,-100,-100,-100,0,0,100,0.00,40.00,0,-999,0,0.00
2013-5-12,85,72,54,-100,-100,-100,0,0,100,0.00,40.00,0,-999,0,0.00
2013-5-13,89,72,50,-100,-100,-100,0,0,100,0.00,40.00,0,-999,0,0.00
2013-5-14,93,76,60,-100,-100,-100,0,0,100,0.00,40.00,0,-999,0,0.00
2013-5-15,93,84,75,-100,-100,-100,0,0,100,0.00,40.00,0,-999,0,0.00
2013-5-16,100,88,71,-100,-100,-100,0,0,100,0.00,40.00,0,-999,0,0.00
2013-5-17,104,87,69,-100,-100,-100,0,0,100,0.00,40.00,0,-999,0,0.00
2013-5-18,99,88,73,-100,-100,-100,0,0,100,0.00,40.00,0,-999,0,0.00
2013-5-19,96,84,71,-100,-100,-100,0,0,100,0.00,40.00,0,-999,0,0.00
2013-5-20,98,82,69,-100,-100,-100,0,0,100,0.00,40.00,0,-999,0,0.00
2013-5-21,94,80,69,-100,-100,-100,0,0,100,0.00,40.00,0,-999,0,0.00
2013-5-22,102,83,60,-100,-100,-100,0,0,100,0.00,40.00,0,-999,0,0.00
2013-5-23,102,78,66,-100,-100,-100,0,0,100,0.00,40.00,0,-999,0,0.00
2013-5-24,98,86,65,-100,-100,-100,0,0,100,0.00,40.00,0,-999,0,0.00
2013-5-25,100,77,64,-100,-100,-100,0,0,100,0.00,40.00,0,-999,0,0.00
2013-5-26,105,83,65,-100,-100,-100,0,0,100,0.00,40.00,0,-999,0,0.00
2013-5-27,104,89,76,-100,-100,-100,0,0,100,0.00,40.00,0,-999,0,0.00
2013-5-28,101,82,72,-100,-100,-100,0,0,100,0.00,40.00,0,-999,0,0.00
2013-5-29,96,86,73,-100,-100,-100,0,0,100,0.00,40.00,0,-999,0,0.00
2013-5-30,99,86,73,-100,-100,-100,0,0,100,0.00,40.00,0,-999,0,0.00
2013-5-31,105,92,72,-100,-100,-100,0,0,100,0.00,40.00,0,-999,0,0.00
2013-6-1,99,86,74,-100,-100,-100,0,0,100,0.00,40.00,0,-999,0,0.00
2013-6-2,98,83,73,-100,-100,-100,0,0,100,0.00,40.00,0,-999,0,0.00
2013-6-3,98,85,69,-100,-100,-100,0,0,100,0.00,40.00,0,-999,0,0.00
2013-6-4,107,93,81,-100,-100,-100,0,0,100,0.00,40.00,0,-999,0,0.00
2013-6-5,104,93,78,-100,-100,-100,0,0,100,0.00,40.00,0,-999,0,0.00
2013-6-6,96,78,66,-100,-100,-100,0,0,100,0.00,40.00,0,-999,0,0.00
2013-6-7,95,79,69,-100,-100,-100,0,0,100,0.00,40.00,0,-999,0,0.00
2013-6-8,105,87,69,-100,-100,-100,0,0,100,0.00,40.00,0,-999,0,0.00
2013-6-9,104,90,72,-100,-100,-100,0,0,100,0.00,40.00,0,-999,0,0.00
2013-6-10,108,90,68,-100,-100,-100,0,0,100,0.00,40.00,0,-999,0,0.00
2013-6-11,110,82,68,-100,-100,-100,0,0,100,0.00,40.00,0,-999,0,0.00
2013-6-12,104,84,69,-100,-100,-100,0,0,100,0.00,40.00,0,-999,0,0.00
2013-6-13,96,78,69,-100,-100,-100,0,0,100,0.00,40.00,0,-999,0,0.00
2013-6-14,91,76,68,-100,-100,-100,0,0,100,0.00,40.00,0,-999,0,0.00
2013-6-15,101,81,69,-100,-100,-100,0,0,100,0.00,40.00,0,-999,0,0.00
2013-6-16,101,87,69,-100,-100,-100,0,0,100,0.00,40.00,0,-999,0,0.00
2013-6-17,98,80,70,-100,-100,-100,0,0,100,0.00,40.00,0,-999,0,0.00
2013-6-18,96,80,67,-100,-100,-100,0,0,100,0.00,40.00,0,-999,0,0.00
2013-6-19,99,83,72,-100,-100,-100,0,0,100,0.00,40.00,0,-999,0,0.00
2013-6-20,100,86,73,-100,-100,-100,0,0,100,0.00,40.00,0,-999,0,0.00
2013-6-22,106,99,84,-100,-100,-100,0,0,100,0.00,40.00,0,-999,0,0.00
2013-6-23,102,90,83,-100,-100,-100,0,0,100,0.00,40.00,0,-999,0,0.00
2013-6-24,98,88,76,-100,-100,-100,0,0,100,0.00,40.00,0,-999,0,0.00
2013-6-25,108,95,78,-100,-100,-100,0,0,100,0.00,40.00,0,-999,0,0.00
2013-6-26,110,99,88,-100,-100,-100,0,0,100,0.00,40.00,0,-999,0,0.00
2013-6-27,108,89,77,-100,-100,-100,0,0,100,0.00,40.00,0,-999,0,0.00
2013-6-28,102,87,69,-100,-100,-100,0,0,100,0.00,40.00,0,-999,0,0.00
2013-6-29,109,94,78,-100,-100,-100,0,0,100,0.00,40.00,0,-999,0,0.00
2013-6-30,99,86,76,-100,-100,-100,0,0,100,0.00,40.00,0,-999,0,0.00
2013-7-1,79,72,68,-100,-100,-100,0,0,100,0.00,40.00,0,-999,0,0.00
2013-7-2,88,74,60,-100,-100,-100,0,0,100,0.00,40.00,0,-999,0,0.00
2013-7-3,98,81,70,-100,-100,-100,0,0,100,0.00,40.00,0,-999,0,0.00
2013-7-4,101,89,68,-100,-100,-100,0,0,100,0.00,40.00,0,-999,0,0.00
2013-7-5,104,87,73,-100,-100,-100,0,0,100,0.00,40.00,0,-999,0,0.00
2013-7-6,107,86,76,-100,-100,-100,0,0,100,0.00,40.00,0,-999,0,0.00
2013-7-7,103,87,73,-100,-100,-100,0,0,100,0.00,40.00,0,-999,0,0.00
2013-7-8,99,83,68,-100,-100,-100,0,0,100,0.00,40.00,0,-999,0,0.00
2013-7-9,100,82,71,-100,-100,-100,0,0,100,0.00,40.00,0,-999,0,0.00
2013-7-10,102,90,76,-100,-100,-100,0,0,100,0.00,40.00,0,-999,0,0.00
2013-7-11,102,86,76,-100,-100,-100,0,0,100,0.00,40.00,0,-999,0,0.00
2013-7-12,105,89,71,-100,-100,-100,0,0,100,0.00,40.00,0,-999,0,0.00
2013-7-13,105,88,70,-100,-100,-100,0,0,100,0.00,40.00,0,-999,0,0.00
2013-7-14,105,91,73,-100,-100,-100,0,0,100,0.00,40.00,0,-999,0,0.00
2013-7-15,83,69,63,-100,-100,-100,0,0,100,0.00,40.00,0,-999,0,0.00
2013-7-16,79,68,64,-100,-100,-100,0,0,100,0.00,40.00,0,-999,0,0.00
2013-7-17,73,70,68,-100,-100,-100,0,0,100,0.00,40.00,0,-999,0,0.00
2013-7-18,81,75,68,-100,-100,-100,0,0,100,0.00,40.00,0,-999,0,0.00
2013-7-19,85,77,69,-100,-100,-100,0,0,100,0.00,40.00,0,-999,0,0.00
2013-7-20,89,78,67,-100,-100,-100,0,0,100,0.00,40.00,0,-999,0,0.00
2013-7-21,92,80,69,-100,-100,-100,0,0,100,0.00,40.00,0,-999,0,0.00
2013-7-22,98,82,73,-100,-100,-100,0,0,100,0.00,40.00,0,-999,0,0.00
2013-7-23,96,87,75,-100,-100,-100,0,0,100,0.00,40.00,0,-999,0,0.00
2013-7-24,101,86,75,-100,-100,-100,0,0,100,0.00,40.00,0,-999,0,0.00
2013-7-25,100,84,73,-100,-100,-100,0,0,100,0.00,40.00,0,-999,0,0.00
2013-7-26,92,80,76,-100,-100,-100,0,0,100,0.00,40.00,0,-999,0,0.00
2013-7-27,94,78,73,-100,-100,-100,0,0,100,0.00,40.00,0,-999,0,0.00
2013-7-28,97,84,73,-100,-100,-100,0,0,100,0.00,40.00,0,-999,0,0.00
2013-7-29,94,79,72,-100,-100,-100,0,0,100,0.00,40.00,0,-999,0,0.00
2013-7-30,98,87,79,-100,-100,-100,0,0,100,0.00,40.00,0,-999,0,0.00
2013-7-31,103,87,76,-100,-100,-100,0,0,100,0.00,40.00,0,-999,0,0.00
2013-8-1,92,80,73,-100,-100,-100,0,0,100,0.00,40.00,0,-999,0,0.00
2013-8-2,105,89,76,-100,-100,-100,0,0,100,0.00,40.00,0,-999,0,0.00
2013-8-3,107,85,76,-100,-100,-100,0,0,100,0.00,40.00,0,-999,0,0.00
2013-8-4,105,89,74,-100,-100,-100,0,0,100,0.00,40.00,0,-999,0,0.00
2013-8-5,103,82,75,-100,-100,-100,0,0,100,0.00,40.00,0,-999,0,0.00
2013-8-6,95,86,80,-100,-100,-100,0,0,100,0.00,40.00,0,-999,0,0.00
2013-8-7,88,83,78,-100,-100,-100,0,0,100,0.00,40.00,0,-999,0,0.00
2013-8-8,102,91,78,-100,-100,-100,0,0,100,0.00,40.00,0,-999,0,0.00
2013-8-9,101,82,75,-100,-100,-100,0,0,100,0.00,40.00,0,-999,0,0.00
2013-8-10,97,82,73,-100,-100,-100,0,0,100,0.00,40.00,0,-999,0,0.00
2013-8-11,98,85,73,-100,-100,-100,0,0,100,0.00,40.00,0,-999,0,0.00
2013-8-12,97,83,70,-100,-100,-100,0,0,100,0.00,40.00,0,-999,0,0.00
2013-8-13,101,84,71,-100,-100,-100,0,0,100,0.00,40.00,0,-999,0,0.00
2013-8-14,97,85,72,-100,-100,-100,0,0,100,0.00,40.00,0,-999,0,0.00
2013-8-15,100,86,69,-100,-100,-100,0,0,100,0.00,40.00,0,-999,0,0.00
2013-8-16,102,93,83,-100,-100,-100,0,0,100,0.00,40.00,0,-999,0,0.00
2013-8-17,103,89,72,-100,-100,-100,0,0,100,0.00,40.00,0,-999,0,0.00
2013-8-18,102,85,72,-100,-100,-100,0,0,100,0.00,40.00,0,-999,0,0.00
2013-8-19,102,85,73,-100,-100,-100,0,0,100,0.00,40.00,0,-999,0,0.00
2013-8-20,99,82,71,-100,-100,-100,0,0,100,0.00,40.00,0,-999,0,0.00
2013-8-21,99,87,71,-100,-100,-100,0,0,100,0.00,40.00,0,-999,0,0.00
2013-8-22,97,78,69,-100,-100,-100,0,0,100,0.00,40.00,0,-999,0,0.00
2013-8-23,91,76,65,-100,-100,-100,0,0,100,0.00,40.00,0,-999,0,0.00
2013-8-24,98,81,70,-100,-100,-100,0,0,100,0.00,40.00,0,-999,0,0.00
2013-8-25,96,82,73,-100,-100,-100,0,0,100,0.00,40.00,0,-999,0,0.00
2013-8-26,93,78,66,-100,-100,-100,0,0,100,0.00,40.00,0,-999,0,0.00
2013-8-27,93,79,73,-100,-100,-100,0,0,100,0.00,40.00,0,-999,0,0.00
2013-8-28,94,88,86,-100,-100,-100,0,0,100,0.00,40.00,0,-999,0,0.00
2013-8-29,98,83,73,-100,-100,-100,0,0,100,0.00,40.00,0,-999,0,0.00
2013-8-30,101,88,72,-100,-100,-100,0,0,100,0.00,40.00,0,-999,0,0.00
2013-8-31,98,82,71,-100,-100,-100,0,0,100,0.00,40.00,0,-999,0,0.00
2013-9-1,102,90,69,-100,-100,-100,0,0,100,0.00,40.00,0,-999,0,0.00
2013-9-2,94,85,76,-100,-100,-100,0,0,100,0.00,40.00,0,-999,0,0.00
2013-9-3,94,79,67,-100,-100,-100,0,0,100,0.00,40.00,0,-999,0,0.00
2013-9-4,99,83,69,-100,-100,-100,0,0,100,0.00,40.00,0,-999,0,0.00
2013-9-5,97,86,66,-100,-100,-100,0,0,100,0.00,40.00,0,-999,0,0.00
2013-9-6,98,85,68,-100,-100,-100,0,0,100,0.00,40.00,0,-999,0,0.00
2013-9-7,95,81,67,-100,-100,-100,0,0,100,0.00,40.00,0,-999,0,0.00
2013-9-8,94,84,70,-100,-100,-100,0,0,100,0.00,40.00,0,-999,0,0.00
2013-9-9,88,78,67,-100,-100,-100,0,0,100,0.00,40.00,0,-999,0,0.00
2013-9-10,87,77,70,-100,-100,-100,0,0,100,0.00,40.00,0,-999,0,0.00
2013-9-11,91,82,73,-100,-100,-100,0,0,100,0.00,40.00,0,-999,0,0.00
2013-9-12,87,81,73,-100,-100,-100,0,0,100,0.00,40.00,0,-999,0,0.00
2013-9-13,95,80,65,-100,-100,-100,0,0,100,0.00,40.00,0,-999,0,0.00
2013-9-14,94,75,63,-100,-100,-100,0,0,100,0.00,40.00,0,-999,0,0.00
2013-9-15,94,82,67,-100,-100,-100,0,0,100,0.00,40.00,0,-999,0,0.00
2013-9-16,90,78,66,-100,-100,-100,0,0,100,0.00,40.00,0,-999,0,0.00
2013-9-17,87,77,71,-100,-100,-100,0,0,100,0.00,40.00,0,-999,0,0.00
2013-9-18,76,73,69,-100,-100,-100,0,0,100,0.00,40.00,0,-999,0,0.00
2013-9-19,80,74,69,-100,-100,-100,0,0,100,0.00,40.00,0,-999,0,0.00
2013-9-20,76,71,67,-100,-100,-100,0,0,100,0.00,40.00,0,-999,0,0.00
2013-9-21,84,71,63,-100,-100,-100,0,0,100,0.00,40.00,0,-999,0,0.00
2013-9-22,90,74,62,-100,-100,-100,0,0,100,0.00,40.00,0,-999,0,0.00
2013-9-23,93,77,65,-100,-100,-100,0,0,100,0.00,40.00,0,-999,0,0.00
2013-9-24,91,80,67,-100,-100,-100,0,0,100,0.00,40.00,0,-999,0,0.00
2013-9-25,98,82,61,-100,-100,-100,0,0,100,0.00,40.00,0,-999,0,0.00
2013-9-26,100,84,71,-100,-100,-100,0,0,100,0.00,40.00,0,-999,0,0.00
2013-9-27,95,81,70,-100,-100,-100,0,0,100,0.00,40.00,0,-999,0,0.00
2013-9-28,83,74,67,-100,-100,-100,0,0,100,0.00,40.00,0,-999,0,0.00
2013-9-29,88,72,56,-100,-100,-100,0,0,100,0.00,40.00,0,-999,0,0.00
2013-9-30,94,78,62,-100,-100,-100,0,0,100,0.00,40.00,0,-999,0,0.00
2013-10-1,70,69,69,-100,-100,-100,0,0,100,0.00,40.00,0,-999,0,0.00
2013-10-2,96,84,70,-100,-100,-100,0,0,100,0.00,40.00,0,-999,0,0.00
2013-10-3,96,90,77,-100,-100,-100,0,0,100,0.00,40.00,0,-999,0,0.00
2013-10-4,96,87,69,-100,-100,-100,0,0,100,0.00,40.00,0,-999,0,0.00
2013-10-5,76,68,56,-100,-100,-100,0,0,100,0.00,40.00,0,-999,0,0.00
2013-10-6,80,63,49,-100,-100,-100,0,0,100,0.00,40.00,0,-999,0,0.00
2013-10-7,87,71,53,-100,-100,-100,0,0,100,0.00,40.00,0,-999,0,0.00
2013-10-8,94,74,54,-100,-100,-100,0,0,100,0.00,40.00,0,-999,0,0.00
2013-10-9,94,76,60,-100,-100,-100,0,0,100,0.00,40.00,0,-999,0,0.00
2013-10-10,95,78,57,-100,-100,-100,0,0,100,0.00,40.00,0,-999,0,0.00
2013-10-11,87,76,62,-100,-100,-100,0,0,100,0.00,40.00,0,-999,0,0.00
2013-10-12,83,68,56,-100,-100,-100,0,0,100,0.00,40.00,0,-999,0,0.00
2013-10-13,77,70,65,-100,-100,-100,0,0,100,0.00,40.00,0,-999,0,0.00
2013-10-14,85,74,65,-100,-100,-100,0,0,100,0.00,40.00,0,-999,0,0.00
2013-10-15,76,63,53,-100,-100,-100,0,0,100,0.00,40.00,0,-999,0,0.00
2013-10-16,62,57,49,-100,-100,-100,0,0,100,0.00,40.00,0,-999,0,0.00
2013-10-17,81,67,55,-100,-100,-100,0,0,100,0.00,40.00,0,-999,0,0.00
2013-10-18,85,64,53,-100,-100,-100,0,0,100,0.00,40.00,0,-999,0,0.00
2013-10-19,74,56,37,-100,-100,-100,0,0,100,0.00,40.00,0,-999,0,0.00
2013-10-20,85,71,54,-100,-100,-100,0,0,100,0.00,40.00,0,-999,0,0.00
2013-10-21,71,62,52,-100,-100,-100,0,0,100,0.00,40.00,0,-999,0,0.00
2013-10-22,76,59,44,-100,-100,-100,0,0,100,0.00,40.00,0,-999,0,0.00
2013-10-23,83,74,51,-100,-100,-100,0,0,100,0.00,40.00,0,-999,0,0.00
2013-10-24,85,69,51,-100,-100,-100,0,0,100,0.00,40.00,0,-999,0,0.00
2013-10-25,79,62,53,-100,-100,-100,0,0,100,0.00,40.00,0,-999,0,0.00
2013-10-26,80,65,54,-100,-100,-100,0,0,100,0.00,40.00,0,-999,0,0.00
2013-10-27,81,65,45,-100,-100,-100,0,0,100,0.00,40.00,0,-999,0,0.00
2013-10-28,89,71,54,-100,-100,-100,0,0,100,0.00,40.00,0,-999,0,0.00
2013-10-29,88,73,61,-100,-100,-100,0,0,100,0.00,40.00,0,-999,0,0.00
2013-10-30,80,76,74,-100,-100,-100,0,0,100,0.00,40.00,0,-999,0,0.00
2013-10-31,76,66,54,-100,-100,-100,0,0,100,0.00,40.00,0,-999,0,0.00
2013-11-1,76,66,49,-100,-100,-100,0,0,100,0.00,40.00,0,-999,0,0.00
2013-11-2,77,56,43,-100,-100,-100,0,0,100,0.00,40.00,0,-999,0,0.00
2013-11-3,69,58,46,-100,-100,-100,0,0,100,0.00,40.00,0,-999,0,0.00
2013-11-4,80,76,67,-100,-100,-100,0,0,100,0.00,40.00,0,-999,0,0.00
2013-11-5,75,60,54,-100,-100,-100,0,0,100,0.00,40.00,0,-999,0,0.00
2013-11-6,64,54,43,-100,-100,-100,0,0,100,0.00,40.00,0,-999,0,0.00
2013-11-7,67,53,36,-100,-100,-100,0,0,100,0.00,40.00,0,-999,0,0.00
2013-11-8,65,52,49,-100,-100,-100,0,0,100,0.00,40.00,0,-999,0,0.00
2013-11-9,80,74,62,-100,-100,-100,0,0,100,0.00,40.00,0,-999,0,0.00
2013-11-10,76,63,49,-100,-100,-100,0,0,100,0.00,40.00,0,-999,0,0.00
2013-11-11,78,65,51,-100,-100,-100,0,0,100,0.00,40.00,0,-999,0,0.00
2013-11-12,54,45,39,-100,-100,-100,0,0,100,0.00,40.00,0,-999,0,0.00
2013-11-13,59,48,41,-100,-100,-100,0,0,100,0.00,40.00,0,-999,0,0.00
2013-11-14,74,59,43,-100,-100,-100,0,0,100,0.00,40.00,0,-999,0,0.00
2013-11-15,81,72,62,-100,-100,-100,0,0,100,0.00,40.00,0,-999,0,0.00
2013-11-16,81,68,54,-100,-100,-100,0,0,100,0.00,40.00,0,-999,0,0.00
2013-11-17,79,72,63,-100,-100,-100,0,0,100,0.00,40.00,0,-999,0,0.00
2013-11-18,66,58,51,-100,-100,-100,0,0,100,0.00,40.00,0,-999,0,0.00
2013-11-19,80,59,45,-100,-100,-100,0,0,100,0.00,40.00,0,-999,0,0.00
2013-11-20,84,72,58,-100,-100,-100,0,0,100,0.00,40.00,0,-999,0,0.00
2013-11-21,83,73,56,-100,-100,-100,0,0,100,0.00,40.00,0,-999,0,0.00
2013-11-22,56,35,30,-100,-100,-100,0,0,100,0.00,40.00,0,-999,0,0.00
2013-11-23,34,31,28,-100,-100,-100,0,0,100,0.00,40.00,0,-999,0,0.00
2013-11-24,34,30,26,-100,-100,-100,0,0,100,0.00,40.00,0,-999,0,0.00
2013-11-25,49,38,32,-100,-100,-100,0,0,100,0.00,40.00,0,-999,0,0.00
2013-11-26,51,42,33,-100,-100,-100,0,0,100,0.00,40.00,0,-999,0,0.00
2013-11-27,56,44,32,-100,-100,-100,0,0,100,0.00,40.00,0,-999,0,0.00
2013-11-28,65,45,32,-100,-100,-100,0,0,100,0.00,40.00,0,-999,0,0.00
2013-11-29,65,50,35,-100,-100,-100,0,0,100,0.00,40.00,0,-999,0,0.00
2013-11-30,63,53,44,-100,-100,-100,0,0,100,0.00,40.00,0,-999,0,0.00
2013-12-1,62,60,59,-100,-100,-100,0,0,100,0.00,40.00,0,-999,0,0.00
2013-12-2,77,71,57,-100,-100,-100,0,0,100,0.00,40.00,0,-999,0,0.00
2013-12-3,75,70,62,-100,-100,-100,0,0,100,0.00,40.00,0,-999,0,0.00
2013-12-4,81,70,59,-100,-100,-100,0,0,100,0.00,40.00,0,-999,0,0.00
2013-12-5,55,36,31,-100,-100,-100,0,0,100,0.00,40.00,0,-999,0,0.00
2013-12-6,32,30,29,-100,-100,-100,0,0,100,0.00,40.00,0,-999,0,0.00
2013-12-7,30,25,22,-100,-100,-100,0,0,100,0.00,40.00,0,-999,0,0.00
2013-12-8,59,40,25,-100,-100,-100,0,0,100,0.00,40.00,0,-999,0,0.00
2013-12-9,54,40,35,-100,-100,-100,0,0,100,0.00,40.00,0,-999,0,0.00
2013-12-10,52,36,29,-100,-100,-100,0,0,100,0.00,40.00,0,-999,0,0.00
2013-12-11,47,42,37,-100,-100,-100,0,0,100,0.00,40.00,0,-999,0,0.00
2013-12-12,47,40,32,-100,-100,-100,0,0,100,0.00,40.00,0,-999,0,0.00
2013-12-13,62,52,36,-100,-100,-100,0,0,100,0.00,40.00,0,-999,0,0.00
2013-12-14,54,45,36,-100,-100,-100,0,0,100,0.00,40.00,0,-999,0,0.00
2013-12-15,62,55,34,-100,-100,-100,0,0,100,0.00,40.00,0,-999,0,0.00
2013-12-16,66,60,45,-100,-100,-100,0,0,100,0.00,40.00,0,-999,0,0.00
2013-12-17,71,57,46,-100,-100,-100,0,0,100,0.00,40.00,0,-999,0,0.00
2013-12-18,77,63,53,-100,-100,-100,0,0,100,0.00,40.00,0,-999,0,0.00
2013-12-19,80,65,54,-100,-100,-100,0,0,100,0.00,40.00,0,-999,0,0.00
2013-12-20,55,52,48,-100,-100,-100,0,0,100,0.00,40.00,0,-999,0,0.00
2013-12-21,51,47,44,-100,-100,-100,0,0,100,0.00,40.00,0,-999,0,0.00
2013-12-22,47,42,35,-100,-100,-100,0,0,100,0.00,40.00,0,-999,0,0.00
2013-12-23,61,42,32,-100,-100,-100,0,0,100,0.00,40.00,0,-999,0,0.00
2013-12-24,66,55,36,-100,-100,-100,0,0,100,0.00,40.00,0,-999,0,0.00
2013-12-25,51,44,37,-100,-100,-100,0,0,100,0.00,40.00,0,-999,0,0.00
2013-12-26,58,43,30,-100,-100,-100,0,0,100,0.00,40.00,0,-999,0,0.00
2013-12-27,56,42,32,-100,-100,-100,0,0,100,0.00,40.00,0,-999,0,0.00
2013-12-28,63,56,35,-100,-100,-100,0,0,100,0.00,40.00,0,-999,0,0.00
2013-12-29,43,38,29,-100,-100,-100,0,0,100,0.00,40.00,0,-999,0,0.00
2013-12-30,61,50,27,-100,-100,-100,0,0,100,0.00,40.00,0,-999,0,0.00
2013-12-31,65,44,32,-100,-100,-100,0,0,100,0.00,40.00,0,-999,0,0.00
2014-1-1,70,64,47,-100,-100,-100,0,0,100,0.00,40.00,0,-999,0,0.00
2014-1-2,52,43,29,-100,-100,-100,0,0,100,0.00,40.00,0,-999,0,0.00